sensor_id;sensor_type;location;lat;lon;timestamp;pressure;altitude;pressure_sealevel;temperature;humidity
55733;BME280;41637;52.364;9.910;2023-07-24T00:01:14;99790.77;;;19.46;89.48
55733;BME280;41637;52.364;9.910;2023-07-24T00:03:41;99791.45;;;19.43;89.73
55733;BME280;41637;52.364;9.910;2023-07-24T00:06:08;99796.73;;;19.39;90.22
55733;BME280;41637;52.364;9.910;2023-07-24T00:08:36;99794.95;;;19.37;90.74
55733;BME280;41637;52.364;9.910;2023-07-24T00:11:02;99796.05;;;19.35;90.69
55733;BME280;41637;52.364;9.910;2023-07-24T00:13:31;99797.39;;;19.33;91.12
55733;BME280;41637;52.364;9.910;2023-07-24T00:15:58;99793.84;;;19.32;91.40
55733;BME280;41637;52.364;9.910;2023-07-24T00:18:26;99790.41;;;19.29;91.55
55733;BME280;41637;52.364;9.910;2023-07-24T00:20:52;99791.40;;;19.26;91.51
55733;BME280;41637;52.364;9.910;2023-07-24T00:23:19;99781.20;;;19.23;91.61
55733;BME280;41637;52.364;9.910;2023-07-24T00:25:46;99781.65;;;19.24;91.37
55733;BME280;41637;52.364;9.910;2023-07-24T00:28:13;99772.55;;;19.23;91.16
55733;BME280;41637;52.364;9.910;2023-07-24T00:30:40;99769.45;;;19.24;91.06
55733;BME280;41637;52.364;9.910;2023-07-24T00:33:07;99769.06;;;19.23;91.05
55733;BME280;41637;52.364;9.910;2023-07-24T00:35:34;99774.54;;;19.22;90.99
55733;BME280;41637;52.364;9.910;2023-07-24T00:38:01;99779.09;;;19.21;91.25
55733;BME280;41637;52.364;9.910;2023-07-24T00:40:27;99772.61;;;19.20;91.15
55733;BME280;41637;52.364;9.910;2023-07-24T00:42:54;99771.29;;;19.20;91.07
55733;BME280;41637;52.364;9.910;2023-07-24T00:45:22;99771.64;;;19.19;90.87
55733;BME280;41637;52.364;9.910;2023-07-24T00:47:49;99764.27;;;19.17;90.85
55733;BME280;41637;52.364;9.910;2023-07-24T00:50:16;99761.49;;;19.14;90.79
55733;BME280;41637;52.364;9.910;2023-07-24T00:52:44;99764.34;;;19.13;90.92
55733;BME280;41637;52.364;9.910;2023-07-24T00:55:12;99762.55;;;19.13;90.93
55733;BME280;41637;52.364;9.910;2023-07-24T00:57:40;99763.42;;;19.13;90.98
55733;BME280;41637;52.364;9.910;2023-07-24T01:00:07;99769.20;;;19.15;90.99
55733;BME280;41637;52.364;9.910;2023-07-24T01:02:35;99775.23;;;19.17;91.03
55733;BME280;41637;52.364;9.910;2023-07-24T01:05:01;99774.31;;;19.17;91.23
55733;BME280;41637;52.364;9.910;2023-07-24T01:07:29;99771.92;;;19.18;91.27
55733;BME280;41637;52.364;9.910;2023-07-24T01:09:56;99770.10;;;19.21;91.11
55733;BME280;41637;52.364;9.910;2023-07-24T01:12:31;99771.09;;;19.21;91.11
55733;BME280;41637;52.364;9.910;2023-07-24T01:15:22;99772.60;;;19.23;90.94
55733;BME280;41637;52.364;9.910;2023-07-24T01:17:57;99765.36;;;19.24;90.84
55733;BME280;41637;52.364;9.910;2023-07-24T01:20:28;99767.64;;;19.26;90.70
55733;BME280;41637;52.364;9.910;2023-07-24T01:26:17;99756.55;;;19.26;90.25
55733;BME280;41637;52.364;9.910;2023-07-24T01:28:44;99753.55;;;19.26;89.83
55733;BME280;41637;52.364;9.910;2023-07-24T01:31:12;99751.61;;;19.27;89.53
55733;BME280;41637;52.364;9.910;2023-07-24T01:33:39;99751.14;;;19.28;89.22
55733;BME280;41637;52.364;9.910;2023-07-24T01:36:06;99751.97;;;19.29;89.11
55733;BME280;41637;52.364;9.910;2023-07-24T01:38:34;99748.98;;;19.32;88.96
55733;BME280;41637;52.364;9.910;2023-07-24T01:41:02;99746.79;;;19.34;88.73
55733;BME280;41637;52.364;9.910;2023-07-24T01:43:29;99744.80;;;19.34;88.49
55733;BME280;41637;52.364;9.910;2023-07-24T01:45:56;99746.09;;;19.34;88.33
55733;BME280;41637;52.364;9.910;2023-07-24T01:48:24;99744.60;;;19.36;88.27
55733;BME280;41637;52.364;9.910;2023-07-24T01:50:51;99741.21;;;19.37;88.19
55733;BME280;41637;52.364;9.910;2023-07-24T01:53:18;99737.35;;;19.38;88.05
55733;BME280;41637;52.364;9.910;2023-07-24T01:55:45;99740.30;;;19.37;87.91
55733;BME280;41637;52.364;9.910;2023-07-24T01:58:11;99738.36;;;19.36;87.88
55733;BME280;41637;52.364;9.910;2023-07-24T02:00:38;99731.35;;;19.35;87.79
55733;BME280;41637;52.364;9.910;2023-07-24T02:03:05;99739.73;;;19.35;87.85
55733;BME280;41637;52.364;9.910;2023-07-24T02:05:32;99738.41;;;19.32;87.90
55733;BME280;41637;52.364;9.910;2023-07-24T02:07:59;99744.34;;;19.32;87.87
55733;BME280;41637;52.364;9.910;2023-07-24T02:10:26;99745.38;;;19.33;87.54
55733;BME280;41637;52.364;9.910;2023-07-24T02:12:53;99751.69;;;19.35;87.45
55733;BME280;41637;52.364;9.910;2023-07-24T02:15:20;99749.27;;;19.35;87.53
55733;BME280;41637;52.364;9.910;2023-07-24T02:17:47;99745.41;;;19.37;87.38
55733;BME280;41637;52.364;9.910;2023-07-24T02:20:14;99739.73;;;19.38;87.42
55733;BME280;41637;52.364;9.910;2023-07-24T02:22:41;99741.88;;;19.40;87.19
55733;BME280;41637;52.364;9.910;2023-07-24T02:25:08;99735.87;;;19.41;87.13
55733;BME280;41637;52.364;9.910;2023-07-24T02:27:35;99735.37;;;19.41;87.00
55733;BME280;41637;52.364;9.910;2023-07-24T02:30:03;99731.34;;;19.40;87.13
55733;BME280;41637;52.364;9.910;2023-07-24T02:32:30;99728.64;;;19.39;87.02
55733;BME280;41637;52.364;9.910;2023-07-24T02:34:56;99723.85;;;19.39;87.09
55733;BME280;41637;52.364;9.910;2023-07-24T02:37:23;99718.89;;;19.38;86.97
55733;BME280;41637;52.364;9.910;2023-07-24T02:39:51;99721.45;;;19.34;87.04
55733;BME280;41637;52.364;9.910;2023-07-24T02:42:18;99722.91;;;19.29;87.33
55733;BME280;41637;52.364;9.910;2023-07-24T02:44:45;99729.55;;;19.24;87.67
55733;BME280;41637;52.364;9.910;2023-07-24T02:47:12;99727.80;;;19.22;88.05
55733;BME280;41637;52.364;9.910;2023-07-24T02:49:39;99728.59;;;19.20;88.38
55733;BME280;41637;52.364;9.910;2023-07-24T02:52:06;99729.83;;;19.19;88.33
55733;BME280;41637;52.364;9.910;2023-07-24T02:54:34;99732.95;;;19.20;88.49
55733;BME280;41637;52.364;9.910;2023-07-24T02:57:00;99734.20;;;19.21;88.48
55733;BME280;41637;52.364;9.910;2023-07-24T02:59:29;99730.82;;;19.23;88.33
55733;BME280;41637;52.364;9.910;2023-07-24T03:01:56;99732.79;;;19.26;88.17
55733;BME280;41637;52.364;9.910;2023-07-24T03:04:23;99729.15;;;19.29;88.17
55733;BME280;41637;52.364;9.910;2023-07-24T03:06:50;99725.07;;;19.29;88.08
55733;BME280;41637;52.364;9.910;2023-07-24T03:09:17;99721.15;;;19.30;87.89
55733;BME280;41637;52.364;9.910;2023-07-24T03:11:44;99713.90;;;19.32;87.86
55733;BME280;41637;52.364;9.910;2023-07-24T03:14:10;99712.63;;;19.33;87.66
55733;BME280;41637;52.364;9.910;2023-07-24T03:16:37;99721.02;;;19.34;87.72
55733;BME280;41637;52.364;9.910;2023-07-24T03:19:04;99719.10;;;19.34;87.63
55733;BME280;41637;52.364;9.910;2023-07-24T03:21:31;99719.79;;;19.34;87.59
55733;BME280;41637;52.364;9.910;2023-07-24T03:23:58;99722.10;;;19.34;87.49
55733;BME280;41637;52.364;9.910;2023-07-24T03:26:25;99726.52;;;19.34;87.59
55733;BME280;41637;52.364;9.910;2023-07-24T03:28:51;99723.27;;;19.33;87.46
55733;BME280;41637;52.364;9.910;2023-07-24T03:31:18;99729.27;;;19.31;87.31
55733;BME280;41637;52.364;9.910;2023-07-24T03:33:45;99725.95;;;19.30;87.25
55733;BME280;41637;52.364;9.910;2023-07-24T03:36:12;99726.63;;;19.30;87.20
55733;BME280;41637;52.364;9.910;2023-07-24T03:38:39;99723.84;;;19.30;87.19
55733;BME280;41637;52.364;9.910;2023-07-24T03:41:06;99720.24;;;19.31;87.09
55733;BME280;41637;52.364;9.910;2023-07-24T03:43:33;99720.43;;;19.34;87.04
55733;BME280;41637;52.364;9.910;2023-07-24T03:46:00;99712.90;;;19.34;86.84
55733;BME280;41637;52.364;9.910;2023-07-24T03:48:27;99709.85;;;19.37;86.82
55733;BME280;41637;52.364;9.910;2023-07-24T03:51:00;99701.14;;;19.38;86.60
55733;BME280;41637;52.364;9.910;2023-07-24T03:53:28;99699.21;;;19.39;86.42
55733;BME280;41637;52.364;9.910;2023-07-24T03:55:58;99701.92;;;19.41;86.35
55733;BME280;41637;52.364;9.910;2023-07-24T03:58:24;99691.98;;;19.44;86.27
55733;BME280;41637;52.364;9.910;2023-07-24T04:00:51;99693.11;;;19.48;86.09
55733;BME280;41637;52.364;9.910;2023-07-24T04:03:18;99692.15;;;19.50;85.88
55733;BME280;41637;52.364;9.910;2023-07-24T04:05:46;99687.27;;;19.51;85.64
55733;BME280;41637;52.364;9.910;2023-07-24T04:08:12;99689.89;;;19.52;85.52
55733;BME280;41637;52.364;9.910;2023-07-24T04:10:39;99690.33;;;19.52;85.50
55733;BME280;41637;52.364;9.910;2023-07-24T04:13:06;99687.48;;;19.51;85.26
55733;BME280;41637;52.364;9.910;2023-07-24T04:15:33;99689.98;;;19.49;85.23
55733;BME280;41637;52.364;9.910;2023-07-24T04:17:59;99697.79;;;19.47;85.27
55733;BME280;41637;52.364;9.910;2023-07-24T04:20:26;99681.78;;;19.46;85.29
55733;BME280;41637;52.364;9.910;2023-07-24T04:22:53;99669.56;;;19.46;85.34
55733;BME280;41637;52.364;9.910;2023-07-24T04:25:20;99665.20;;;19.43;85.20
55733;BME280;41637;52.364;9.910;2023-07-24T04:27:47;99667.27;;;19.41;85.23
55733;BME280;41637;52.364;9.910;2023-07-24T04:30:14;99667.85;;;19.37;85.48
55733;BME280;41637;52.364;9.910;2023-07-24T04:32:41;99669.55;;;19.35;85.58
55733;BME280;41637;52.364;9.910;2023-07-24T04:35:08;99662.60;;;19.31;85.77
55733;BME280;41637;52.364;9.910;2023-07-24T04:37:35;99664.86;;;19.26;86.02
55733;BME280;41637;52.364;9.910;2023-07-24T04:40:02;99663.37;;;19.21;86.09
55733;BME280;41637;52.364;9.910;2023-07-24T04:42:29;99654.42;;;19.17;86.35
55733;BME280;41637;52.364;9.910;2023-07-24T04:44:56;99652.45;;;19.12;86.46
55733;BME280;41637;52.364;9.910;2023-07-24T04:47:23;99650.31;;;19.08;86.79
55733;BME280;41637;52.364;9.910;2023-07-24T04:49:50;99648.77;;;19.04;86.94
55733;BME280;41637;52.364;9.910;2023-07-24T04:52:17;99646.51;;;19.02;87.05
55733;BME280;41637;52.364;9.910;2023-07-24T04:54:44;99640.45;;;18.98;86.99
55733;BME280;41637;52.364;9.910;2023-07-24T04:57:11;99639.20;;;18.96;87.19
55733;BME280;41637;52.364;9.910;2023-07-24T04:59:37;99638.30;;;18.93;87.38
55733;BME280;41637;52.364;9.910;2023-07-24T05:02:04;99632.77;;;18.92;87.53
55733;BME280;41637;52.364;9.910;2023-07-24T05:04:31;99632.88;;;18.92;87.51
55733;BME280;41637;52.364;9.910;2023-07-24T05:06:58;99627.88;;;18.92;87.74
55733;BME280;41637;52.364;9.910;2023-07-24T05:09:25;99619.44;;;18.92;87.75
55733;BME280;41637;52.364;9.910;2023-07-24T05:11:52;99615.70;;;18.95;87.77
55733;BME280;41637;52.364;9.910;2023-07-24T05:14:19;99610.58;;;19.00;87.78
55733;BME280;41637;52.364;9.910;2023-07-24T05:16:45;99606.65;;;19.06;87.66
55733;BME280;41637;52.364;9.910;2023-07-24T05:19:13;99606.77;;;19.15;87.58
55733;BME280;41637;52.364;9.910;2023-07-24T05:21:39;99610.13;;;19.27;87.46
55733;BME280;41637;52.364;9.910;2023-07-24T05:24:06;99613.45;;;19.43;86.99
55733;BME280;41637;52.364;9.910;2023-07-24T05:26:33;99607.01;;;19.54;86.50
55733;BME280;41637;52.364;9.910;2023-07-24T05:28:59;99601.45;;;19.69;85.90
55733;BME280;41637;52.364;9.910;2023-07-24T05:31:26;99599.29;;;19.88;85.55
55733;BME280;41637;52.364;9.910;2023-07-24T05:33:53;99599.23;;;20.08;84.93
55733;BME280;41637;52.364;9.910;2023-07-24T05:36:20;99606.30;;;20.27;84.49
55733;BME280;41637;52.364;9.910;2023-07-24T05:38:47;99608.65;;;20.48;83.83
55733;BME280;41637;52.364;9.910;2023-07-24T05:41:13;99611.51;;;20.61;82.64
55733;BME280;41637;52.364;9.910;2023-07-24T05:43:40;99608.98;;;20.71;81.97
55733;BME280;41637;52.364;9.910;2023-07-24T05:46:07;99618.86;;;20.79;81.41
55733;BME280;41637;52.364;9.910;2023-07-24T05:48:34;99617.46;;;20.78;80.76
55733;BME280;41637;52.364;9.910;2023-07-24T05:51:02;99608.30;;;20.72;80.40
55733;BME280;41637;52.364;9.910;2023-07-24T05:53:28;99617.55;;;20.61;79.59
55733;BME280;41637;52.364;9.910;2023-07-24T05:56:00;99605.00;;;20.49;79.70
55733;BME280;41637;52.364;9.910;2023-07-24T05:58:27;99585.10;;;20.39;80.26
55733;BME280;41637;52.364;9.910;2023-07-24T06:00:54;99573.77;;;20.30;81.01
55733;BME280;41637;52.364;9.910;2023-07-24T06:03:24;99582.05;;;20.21;81.84
55733;BME280;41637;52.364;9.910;2023-07-24T06:05:54;99608.69;;;20.12;82.84
55733;BME280;41637;52.364;9.910;2023-07-24T06:08:22;99609.90;;;20.04;83.74
55733;BME280;41637;52.364;9.910;2023-07-24T06:10:50;99604.27;;;19.96;84.35
55733;BME280;41637;52.364;9.910;2023-07-24T06:13:17;99594.20;;;19.96;85.33
55733;BME280;41637;52.364;9.910;2023-07-24T06:15:44;99598.85;;;20.01;85.45
55733;BME280;41637;52.364;9.910;2023-07-24T06:18:11;99593.95;;;20.07;85.81
55733;BME280;41637;52.364;9.910;2023-07-24T06:20:37;99591.95;;;20.14;85.85
55733;BME280;41637;52.364;9.910;2023-07-24T06:23:04;99593.20;;;20.27;85.84
55733;BME280;41637;52.364;9.910;2023-07-24T06:25:31;99587.20;;;20.41;85.57
55733;BME280;41637;52.364;9.910;2023-07-24T06:27:59;99584.46;;;20.49;85.10
55733;BME280;41637;52.364;9.910;2023-07-24T06:30:26;99572.86;;;20.58;85.25
55733;BME280;41637;52.364;9.910;2023-07-24T06:32:52;99563.60;;;20.68;84.99
55733;BME280;41637;52.364;9.910;2023-07-24T06:35:19;99552.93;;;20.77;84.63
55733;BME280;41637;52.364;9.910;2023-07-24T06:37:46;99555.84;;;20.86;84.25
55733;BME280;41637;52.364;9.910;2023-07-24T06:40:13;99542.35;;;20.94;83.55
55733;BME280;41637;52.364;9.910;2023-07-24T06:42:40;99538.29;;;21.06;83.59
55733;BME280;41637;52.364;9.910;2023-07-24T06:45:07;99531.46;;;21.17;83.02
55733;BME280;41637;52.364;9.910;2023-07-24T06:47:34;99527.61;;;21.26;82.46
55733;BME280;41637;52.364;9.910;2023-07-24T06:50:01;99524.30;;;21.38;81.65
55733;BME280;41637;52.364;9.910;2023-07-24T06:52:29;99526.06;;;21.44;80.70
55733;BME280;41637;52.364;9.910;2023-07-24T06:54:56;99524.92;;;21.44;80.28
55733;BME280;41637;52.364;9.910;2023-07-24T06:57:24;99535.72;;;21.45;80.28
55733;BME280;41637;52.364;9.910;2023-07-24T06:59:51;99533.95;;;21.46;80.58
55733;BME280;41637;52.364;9.910;2023-07-24T07:02:20;99536.41;;;21.50;80.32
55733;BME280;41637;52.364;9.910;2023-07-24T07:04:47;99543.27;;;21.49;79.92
55733;BME280;41637;52.364;9.910;2023-07-24T07:11:02;99546.23;;;21.46;79.45
55733;BME280;41637;52.364;9.910;2023-07-24T07:13:29;99540.33;;;21.42;79.67
55733;BME280;41637;52.364;9.910;2023-07-24T07:15:55;99546.02;;;21.40;79.75
55733;BME280;41637;52.364;9.910;2023-07-24T07:18:22;99535.03;;;21.35;79.37
55733;BME280;41637;52.364;9.910;2023-07-24T07:20:51;99535.64;;;21.28;79.43
55733;BME280;41637;52.364;9.910;2023-07-24T07:23:19;99531.88;;;21.18;79.80
55733;BME280;41637;52.364;9.910;2023-07-24T07:25:46;99537.84;;;21.12;80.31
55733;BME280;41637;52.364;9.910;2023-07-24T07:28:14;99538.77;;;21.07;80.48
55733;BME280;41637;52.364;9.910;2023-07-24T07:30:41;99537.49;;;20.97;80.19
55733;BME280;41637;52.364;9.910;2023-07-24T07:33:11;99536.80;;;20.87;80.45
55733;BME280;41637;52.364;9.910;2023-07-24T07:35:38;99535.63;;;20.81;80.81
55733;BME280;41637;52.364;9.910;2023-07-24T07:38:05;99536.34;;;20.76;82.29
55733;BME280;41637;52.364;9.910;2023-07-24T07:40:49;99535.46;;;20.65;84.34
55733;BME280;41637;52.364;9.910;2023-07-24T07:43:16;99540.77;;;20.44;85.42
55733;BME280;41637;52.364;9.910;2023-07-24T07:45:43;99539.19;;;20.28;87.04
55733;BME280;41637;52.364;9.910;2023-07-24T07:48:10;99539.53;;;20.12;88.34
55733;BME280;41637;52.364;9.910;2023-07-24T07:50:37;99537.63;;;20.00;89.32
55733;BME280;41637;52.364;9.910;2023-07-24T07:53:03;99536.64;;;19.91;90.48
55733;BME280;41637;52.364;9.910;2023-07-24T07:55:30;99540.98;;;19.84;91.54
55733;BME280;41637;52.364;9.910;2023-07-24T07:57:57;99542.06;;;19.73;91.63
55733;BME280;41637;52.364;9.910;2023-07-24T08:00:23;99545.66;;;19.63;93.30
55733;BME280;41637;52.364;9.910;2023-07-24T08:02:50;99546.01;;;19.55;94.89
55733;BME280;41637;52.364;9.910;2023-07-24T08:05:17;99550.30;;;19.41;96.40
55733;BME280;41637;52.364;9.910;2023-07-24T08:07:47;99548.83;;;19.29;97.28
55733;BME280;41637;52.364;9.910;2023-07-24T08:10:14;99540.04;;;19.24;97.97
55733;BME280;41637;52.364;9.910;2023-07-24T08:12:43;99532.11;;;19.22;98.60
55733;BME280;41637;52.364;9.910;2023-07-24T08:15:10;99529.00;;;19.12;99.18
55733;BME280;41637;52.364;9.910;2023-07-24T08:17:37;99544.09;;;19.00;99.90
55733;BME280;41637;52.364;9.910;2023-07-24T08:20:05;99567.45;;;18.78;100.00
55733;BME280;41637;52.364;9.910;2023-07-24T08:22:32;99552.96;;;18.49;100.00
55733;BME280;41637;52.364;9.910;2023-07-24T08:24:59;99553.48;;;18.30;100.00
55733;BME280;41637;52.364;9.910;2023-07-24T08:27:25;99570.89;;;18.15;100.00
55733;BME280;41637;52.364;9.910;2023-07-24T08:29:52;99576.83;;;18.03;100.00
55733;BME280;41637;52.364;9.910;2023-07-24T08:32:19;99565.79;;;17.96;100.00
55733;BME280;41637;52.364;9.910;2023-07-24T08:34:47;99560.91;;;17.97;100.00
55733;BME280;41637;52.364;9.910;2023-07-24T08:37:14;99559.27;;;18.14;100.00
55733;BME280;41637;52.364;9.910;2023-07-24T08:39:41;99559.77;;;18.41;100.00
55733;BME280;41637;52.364;9.910;2023-07-24T08:42:12;99554.95;;;18.63;100.00
55733;BME280;41637;52.364;9.910;2023-07-24T08:44:39;99556.98;;;18.83;100.00
55733;BME280;41637;52.364;9.910;2023-07-24T08:47:09;99555.45;;;18.95;100.00
55733;BME280;41637;52.364;9.910;2023-07-24T08:49:38;99552.56;;;19.05;100.00
55733;BME280;41637;52.364;9.910;2023-07-24T08:52:07;99550.84;;;19.14;100.00
55733;BME280;41637;52.364;9.910;2023-07-24T08:54:37;99556.27;;;19.23;100.00
55733;BME280;41637;52.364;9.910;2023-07-24T08:57:08;99563.02;;;19.28;100.00
55733;BME280;41637;52.364;9.910;2023-07-24T08:59:35;99572.86;;;19.36;100.00
55733;BME280;41637;52.364;9.910;2023-07-24T09:02:02;99566.46;;;19.49;100.00
55733;BME280;41637;52.364;9.910;2023-07-24T09:04:29;99566.61;;;19.66;100.00
55733;BME280;41637;52.364;9.910;2023-07-24T09:06:56;99559.16;;;19.83;100.00
55733;BME280;41637;52.364;9.910;2023-07-24T09:09:29;99562.33;;;19.97;100.00
55733;BME280;41637;52.364;9.910;2023-07-24T09:11:57;99553.74;;;20.04;100.00
55733;BME280;41637;52.364;9.910;2023-07-24T09:14:28;99552.23;;;20.06;99.89
55733;BME280;41637;52.364;9.910;2023-07-24T09:17:08;99547.50;;;20.08;99.46
55733;BME280;41637;52.364;9.910;2023-07-24T09:19:36;99542.45;;;20.18;98.82
55733;BME280;41637;52.364;9.910;2023-07-24T09:22:13;99542.73;;;20.25;96.82
55733;BME280;41637;52.364;9.910;2023-07-24T09:24:55;99550.93;;;20.27;97.26
55733;BME280;41637;52.364;9.910;2023-07-24T09:27:27;99558.65;;;20.35;97.17
55733;BME280;41637;52.364;9.910;2023-07-24T09:29:57;99556.06;;;20.49;96.02
55733;BME280;41637;52.364;9.910;2023-07-24T09:32:25;99552.34;;;20.70;95.25
55733;BME280;41637;52.364;9.910;2023-07-24T09:34:53;99543.70;;;20.88;93.13
55733;BME280;41637;52.364;9.910;2023-07-24T09:37:28;99539.73;;;21.13;92.45
55733;BME280;41637;52.364;9.910;2023-07-24T09:39:55;99540.75;;;21.37;91.06
55733;BME280;41637;52.364;9.910;2023-07-24T09:42:36;99551.80;;;21.46;87.56
55733;BME280;41637;52.364;9.910;2023-07-24T09:45:24;99550.20;;;21.57;86.83
55733;BME280;41637;52.364;9.910;2023-07-24T09:47:52;99551.80;;;21.75;86.93
55733;BME280;41637;52.364;9.910;2023-07-24T09:50:28;99559.28;;;21.94;85.90
55733;BME280;41637;52.364;9.910;2023-07-24T09:52:55;99556.48;;;22.02;82.84
55733;BME280;41637;52.364;9.910;2023-07-24T09:55:27;99552.00;;;21.99;82.63
55733;BME280;41637;52.364;9.910;2023-07-24T09:57:56;99558.33;;;21.89;82.31
55733;BME280;41637;52.364;9.910;2023-07-24T10:00:25;99553.88;;;21.82;83.69
55733;BME280;41637;52.364;9.910;2023-07-24T10:02:52;99549.09;;;21.88;84.45
55733;BME280;41637;52.364;9.910;2023-07-24T10:05:19;99552.77;;;22.06;83.56
55733;BME280;41637;52.364;9.910;2023-07-24T10:07:46;99552.71;;;22.30;81.28
55733;BME280;41637;52.364;9.910;2023-07-24T10:10:14;99538.91;;;22.41;79.37
55733;BME280;41637;52.364;9.910;2023-07-24T10:12:41;99525.34;;;22.49;79.38
55733;BME280;41637;52.364;9.910;2023-07-24T10:15:08;99524.25;;;22.58;77.73
55733;BME280;41637;52.364;9.910;2023-07-24T10:17:39;99526.55;;;22.67;77.85
55733;BME280;41637;52.364;9.910;2023-07-24T10:20:11;99524.02;;;22.78;76.79
55733;BME280;41637;52.364;9.910;2023-07-24T10:22:42;99520.27;;;23.03;76.16
55733;BME280;41637;52.364;9.910;2023-07-24T10:25:09;99513.98;;;23.25;75.05
55733;BME280;41637;52.364;9.910;2023-07-24T10:27:46;99519.62;;;23.29;73.56
55733;BME280;41637;52.364;9.910;2023-07-24T10:30:14;99507.54;;;23.19;73.63
55733;BME280;41637;52.364;9.910;2023-07-24T10:33:10;99507.61;;;23.14;73.62
55733;BME280;41637;52.364;9.910;2023-07-24T10:35:43;99503.31;;;23.16;74.61
55733;BME280;41637;52.364;9.910;2023-07-24T10:38:11;99499.89;;;23.37;74.49
55733;BME280;41637;52.364;9.910;2023-07-24T10:40:40;99492.54;;;23.57;73.78
55733;BME280;41637;52.364;9.910;2023-07-24T10:43:09;99481.41;;;23.81;73.28
55733;BME280;41637;52.364;9.910;2023-07-24T10:45:49;99478.79;;;24.06;73.12
55733;BME280;41637;52.364;9.910;2023-07-24T10:48:17;99485.13;;;24.23;70.42
55733;BME280;41637;52.364;9.910;2023-07-24T10:50:46;99482.50;;;24.18;68.24
55733;BME280;41637;52.364;9.910;2023-07-24T10:53:20;99475.41;;;24.07;67.83
55733;BME280;41637;52.364;9.910;2023-07-24T10:55:47;99471.23;;;24.00;68.04
55733;BME280;41637;52.364;9.910;2023-07-24T10:58:15;99466.33;;;24.02;67.99
55733;BME280;41637;52.364;9.910;2023-07-24T11:00:43;99474.66;;;24.06;66.79
55733;BME280;41637;52.364;9.910;2023-07-24T11:03:11;99473.33;;;24.01;66.33
55733;BME280;41637;52.364;9.910;2023-07-24T11:05:45;99475.14;;;23.96;64.60
55733;BME280;41637;52.364;9.910;2023-07-24T11:08:14;99474.67;;;23.90;64.38
55733;BME280;41637;52.364;9.910;2023-07-24T11:10:45;99483.87;;;23.79;64.61
55733;BME280;41637;52.364;9.910;2023-07-24T11:13:17;99479.65;;;23.70;65.72
55733;BME280;41637;52.364;9.910;2023-07-24T11:15:44;99475.39;;;23.69;65.75
55733;BME280;41637;52.364;9.910;2023-07-24T11:18:11;99477.07;;;23.73;66.45
55733;BME280;41637;52.364;9.910;2023-07-24T11:20:58;99466.29;;;23.82;66.13
55733;BME280;41637;52.364;9.910;2023-07-24T11:23:25;99466.99;;;23.96;66.16
55733;BME280;41637;52.364;9.910;2023-07-24T11:25:53;99462.64;;;24.09;65.39
55733;BME280;41637;52.364;9.910;2023-07-24T11:28:20;99465.55;;;24.20;64.73
55733;BME280;41637;52.364;9.910;2023-07-24T11:30:47;99457.92;;;24.29;64.20
55733;BME280;41637;52.364;9.910;2023-07-24T11:33:15;99451.80;;;24.39;63.44
55733;BME280;41637;52.364;9.910;2023-07-24T11:35:45;99454.30;;;24.50;63.92
55733;BME280;41637;52.364;9.910;2023-07-24T11:38:13;99454.33;;;24.72;64.43
55733;BME280;41637;52.364;9.910;2023-07-24T11:40:41;99463.85;;;24.92;61.71
55733;BME280;41637;52.364;9.910;2023-07-24T11:43:23;99465.01;;;25.08;60.60
55733;BME280;41637;52.364;9.910;2023-07-24T11:45:52;99459.04;;;25.14;60.18
55733;BME280;41637;52.364;9.910;2023-07-24T11:48:20;99460.74;;;25.27;60.00
55733;BME280;41637;52.364;9.910;2023-07-24T11:50:49;99466.30;;;25.42;59.08
55733;BME280;41637;52.364;9.910;2023-07-24T11:53:24;99471.98;;;25.42;58.30
55733;BME280;41637;52.364;9.910;2023-07-24T11:55:53;99478.91;;;25.28;57.93
55733;BME280;41637;52.364;9.910;2023-07-24T11:58:21;99482.57;;;25.09;59.14
55733;BME280;41637;52.364;9.910;2023-07-24T12:00:49;99485.15;;;24.98;61.42
55733;BME280;41637;52.364;9.910;2023-07-24T12:03:26;99487.83;;;24.86;65.01
55733;BME280;41637;52.364;9.910;2023-07-24T12:05:54;99487.20;;;24.29;67.42
55733;BME280;41637;52.364;9.910;2023-07-24T12:08:30;99485.71;;;23.70;70.05
55733;BME280;41637;52.364;9.910;2023-07-24T12:10:57;99480.09;;;23.16;72.62
55733;BME280;41637;52.364;9.910;2023-07-24T12:13:24;99467.42;;;22.74;73.89
55733;BME280;41637;52.364;9.910;2023-07-24T12:15:51;99464.39;;;22.46;75.47
55733;BME280;41637;52.364;9.910;2023-07-24T12:18:18;99472.33;;;22.33;77.72
55733;BME280;41637;52.364;9.910;2023-07-24T12:20:45;99472.52;;;22.31;78.75
55733;BME280;41637;52.364;9.910;2023-07-24T12:23:11;99468.02;;;22.33;77.08
55733;BME280;41637;52.364;9.910;2023-07-24T12:25:38;99465.98;;;22.37;74.95
55733;BME280;41637;52.364;9.910;2023-07-24T12:28:05;99466.09;;;22.36;73.52
55733;BME280;41637;52.364;9.910;2023-07-24T12:30:32;99464.96;;;22.37;73.35
55733;BME280;41637;52.364;9.910;2023-07-24T12:32:58;99464.95;;;22.33;73.79
55733;BME280;41637;52.364;9.910;2023-07-24T12:35:25;99462.23;;;22.26;73.70
55733;BME280;41637;52.364;9.910;2023-07-24T12:37:52;99461.14;;;22.18;73.25
55733;BME280;41637;52.364;9.910;2023-07-24T12:40:19;99461.09;;;22.09;73.91
55733;BME280;41637;52.364;9.910;2023-07-24T12:42:46;99470.21;;;22.04;74.72
55733;BME280;41637;52.364;9.910;2023-07-24T12:45:13;99474.07;;;21.99;75.97
55733;BME280;41637;52.364;9.910;2023-07-24T12:47:40;99472.04;;;21.88;78.73
55733;BME280;41637;52.364;9.910;2023-07-24T12:50:07;99483.90;;;21.65;79.55
55733;BME280;41637;52.364;9.910;2023-07-24T12:52:34;99481.22;;;21.27;80.20
55733;BME280;41637;52.364;9.910;2023-07-24T12:55:00;99482.25;;;20.88;81.58
55733;BME280;41637;52.364;9.910;2023-07-24T12:57:29;99471.11;;;20.51;84.44
55733;BME280;41637;52.364;9.910;2023-07-24T12:59:56;99476.45;;;20.18;87.44
55733;BME280;41637;52.364;9.910;2023-07-24T13:02:23;99479.42;;;19.93;89.53
55733;BME280;41637;52.364;9.910;2023-07-24T13:04:50;99473.02;;;19.72;90.96
55733;BME280;41637;52.364;9.910;2023-07-24T13:07:17;99463.86;;;19.60;91.53
55733;BME280;41637;52.364;9.910;2023-07-24T13:09:44;99456.42;;;19.53;93.11
55733;BME280;41637;52.364;9.910;2023-07-24T13:12:11;99447.48;;;19.51;94.31